Time;durP1;ratioP1;P1;durP2;ratioP2;P2;SDS_P1;SDS_P2;PMS_P1;PMS_P2;Temp;Humidity;BMP_temperature;BMP_pressure;BME280_temperature;BME280_humidity;BME280_pressure;Samples;Min_cycle;Max_cycle;Signal;HPM_P1;HPM_P2
2024/02/12 00:01:10;;;;;;;1.10;1.10;;;;;;;;;;5100422;28;20490;-66
2024/02/12 00:03:38;;;;;;;2.43;2.23;;;;;;;;;;5102410;28;20515;-66
2024/02/12 00:06:04;;;;;;;0.97;0.97;;;;;;;;;;5094165;28;20513;-67
2024/02/12 00:08:31;;;;;;;1.13;1.13;;;;;;;;;;5097238;28;21007;-64
2024/02/12 00:10:59;;;;;;;1.00;1.00;;;;;;;;;;5094959;28;20480;-67
2024/02/12 00:13:26;;;;;;;1.23;1.23;;;;;;;;;;5102218;28;20452;-66
2024/02/12 00:15:54;;;;;;;1.10;1.10;;;;;;;;;;5103828;28;20515;-66
2024/02/12 00:18:23;;;;;;;1.20;1.20;;;;;;;;;;5099651;28;20451;-65
2024/02/12 00:20:49;;;;;;;1.20;1.20;;;;;;;;;;5093154;28;20451;-67
2024/02/12 00:23:16;;;;;;;0.90;0.90;;;;;;;;;;5093569;28;20487;-64
2024/02/12 00:25:43;;;;;;;1.10;1.10;;;;;;;;;;5096703;28;20455;-65
2024/02/12 00:28:10;;;;;;;1.07;1.07;;;;;;;;;;5102524;28;20482;-65
2024/02/12 00:30:39;;;;;;;1.00;1.00;;;;;;;;;;5102187;28;21201;-67
2024/02/12 00:33:06;;;;;;;1.00;1.00;;;;;;;;;;5091042;28;20535;-63
2024/02/12 00:35:33;;;;;;;1.10;1.10;;;;;;;;;;5093248;28;20480;-64
2024/02/12 00:38:00;;;;;;;1.00;1.00;;;;;;;;;;5096716;28;20486;-64
2024/02/12 00:40:26;;;;;;;1.03;1.03;;;;;;;;;;5095847;28;20507;-67
2024/02/12 00:42:54;;;;;;;1.00;1.00;;;;;;;;;;5094312;28;21096;-64
2024/02/12 00:45:23;;;;;;;1.10;1.10;;;;;;;;;;5106471;28;20488;-63
2024/02/12 00:47:50;;;;;;;1.00;1.00;;;;;;;;;;5092130;28;20463;-65
2024/02/12 00:50:18;;;;;;;0.90;0.90;;;;;;;;;;5096056;28;20848;-67
2024/02/12 00:52:44;;;;;;;1.10;1.10;;;;;;;;;;5101867;28;20462;-64
2024/02/12 00:55:13;;;;;;;1.20;1.20;;;;;;;;;;5096913;28;20455;-66
2024/02/12 00:57:39;;;;;;;1.10;1.10;;;;;;;;;;5104330;28;20466;-68
2024/02/12 01:00:11;;;;;;;1.10;1.10;;;;;;;;;;5101244;28;20475;-67
2024/02/12 01:02:40;;;;;;;1.20;1.20;;;;;;;;;;5096450;28;20495;-66
2024/02/12 01:05:08;;;;;;;1.10;1.10;;;;;;;;;;5108227;28;20455;-66
2024/02/12 01:07:34;;;;;;;1.07;1.07;;;;;;;;;;5100672;28;21555;-65
2024/02/12 01:10:01;;;;;;;1.00;1.00;;;;;;;;;;5102723;28;20439;-66
2024/02/12 01:12:30;;;;;;;1.37;1.37;;;;;;;;;;5095741;28;20455;-66
2024/02/12 01:14:56;;;;;;;1.10;1.10;;;;;;;;;;5094101;28;20457;-63
2024/02/12 01:17:23;;;;;;;1.20;1.20;;;;;;;;;;5092972;28;20512;-65
2024/02/12 01:19:53;;;;;;;1.10;1.10;;;;;;;;;;5088570;28;20458;-66
2024/02/12 01:22:20;;;;;;;2.40;2.30;;;;;;;;;;5108994;28;20521;-65
2024/02/12 01:24:46;;;;;;;0.90;0.90;;;;;;;;;;5092263;28;20443;-67
2024/02/12 01:27:13;;;;;;;1.17;1.17;;;;;;;;;;5098606;28;20493;-66
2024/02/12 01:29:40;;;;;;;0.90;0.90;;;;;;;;;;5103611;28;20442;-67
2024/02/12 01:32:06;;;;;;;0.87;0.87;;;;;;;;;;5101593;28;20458;-66
2024/02/12 01:34:34;;;;;;;0.67;0.67;;;;;;;;;;5092968;28;20440;-67
2024/02/12 01:37:02;;;;;;;0.80;0.80;;;;;;;;;;5098082;28;20936;-66
2024/02/12 01:39:29;;;;;;;0.80;0.80;;;;;;;;;;5102314;28;20485;-65
2024/02/12 01:41:55;;;;;;;0.90;0.90;;;;;;;;;;5102641;28;20467;-63
2024/02/12 01:44:22;;;;;;;0.80;0.80;;;;;;;;;;5095556;28;20480;-62
2024/02/12 01:46:49;;;;;;;1.10;1.10;;;;;;;;;;5098359;28;20446;-66
2024/02/12 01:49:17;;;;;;;0.80;0.80;;;;;;;;;;5098585;28;20569;-64
2024/02/12 01:51:44;;;;;;;0.93;0.93;;;;;;;;;;5095750;28;20474;-65
2024/02/12 01:54:13;;;;;;;1.50;1.40;;;;;;;;;;5093717;28;21267;-66
2024/02/12 01:56:41;;;;;;;0.80;0.80;;;;;;;;;;5089691;28;20475;-67
2024/02/12 01:59:16;;;;;;;0.70;0.70;;;;;;;;;;5098510;28;20457;-65
2024/02/12 02:01:43;;;;;;;0.90;0.90;;;;;;;;;;5097041;28;20470;-64
2024/02/12 02:04:10;;;;;;;0.90;0.90;;;;;;;;;;5092806;28;21087;-66
2024/02/12 02:06:37;;;;;;;0.70;0.70;;;;;;;;;;5105054;28;20485;-65
2024/02/12 02:09:06;;;;;;;2.03;1.93;;;;;;;;;;5100817;28;20580;-65
2024/02/12 02:11:34;;;;;;;0.90;0.90;;;;;;;;;;5093177;28;20455;-66
2024/02/12 02:14:02;;;;;;;0.80;0.80;;;;;;;;;;5093983;28;20446;-66
2024/02/12 02:16:29;;;;;;;0.80;0.80;;;;;;;;;;5095419;28;20466;-64
2024/02/12 02:18:55;;;;;;;0.80;0.80;;;;;;;;;;5087009;28;20472;-65
2024/02/12 02:21:22;;;;;;;0.63;0.63;;;;;;;;;;5102171;28;20469;-66
2024/02/12 02:23:48;;;;;;;0.70;0.70;;;;;;;;;;5093968;28;21012;-67
2024/02/12 02:26:16;;;;;;;0.80;0.80;;;;;;;;;;5099012;28;20482;-65
2024/02/12 02:28:43;;;;;;;0.63;0.63;;;;;;;;;;5099157;28;20486;-67
2024/02/12 02:31:10;;;;;;;0.60;0.60;;;;;;;;;;5096026;28;20468;-67
2024/02/12 02:33:36;;;;;;;0.63;0.63;;;;;;;;;;5092965;28;20864;-66
2024/02/12 02:36:02;;;;;;;0.53;0.53;;;;;;;;;;5099491;28;20504;-66
2024/02/12 02:38:28;;;;;;;14.43;4.80;;;;;;;;;;5094878;28;20475;-67
2024/02/12 02:40:55;;;;;;;0.60;0.60;;;;;;;;;;5093807;28;20264;-66
2024/02/12 02:43:23;;;;;;;0.60;0.60;;;;;;;;;;5090270;28;20966;-66
2024/02/12 02:45:51;;;;;;;0.67;0.67;;;;;;;;;;5099427;28;20479;-64
2024/02/12 02:48:20;;;;;;;8.70;2.50;;;;;;;;;;5098023;28;20467;-66
2024/02/12 02:50:47;;;;;;;1.87;1.80;;;;;;;;;;5096961;28;20470;-65
2024/02/12 02:53:13;;;;;;;0.70;0.70;;;;;;;;;;5095985;28;20455;-66
2024/02/12 02:55:40;;;;;;;0.80;0.80;;;;;;;;;;5092017;28;20463;-65
2024/02/12 02:58:06;;;;;;;0.70;0.70;;;;;;;;;;5103881;28;20478;-66
2024/02/12 03:00:36;;;;;;;0.70;0.70;;;;;;;;;;5103472;28;20451;-68
2024/02/12 03:03:03;;;;;;;0.60;0.60;;;;;;;;;;5097347;28;20517;-65
2024/02/12 03:05:30;;;;;;;0.50;0.50;;;;;;;;;;5089133;28;20459;-68
2024/02/12 03:07:58;;;;;;;0.67;0.67;;;;;;;;;;5088843;28;20458;-66
2024/02/12 03:10:25;;;;;;;0.53;0.53;;;;;;;;;;5097322;28;20501;-67
2024/02/12 03:12:52;;;;;;;1.73;1.63;;;;;;;;;;5099481;28;20454;-67
2024/02/12 03:15:19;;;;;;;2.03;1.93;;;;;;;;;;5099360;28;20448;-68
2024/02/12 03:17:48;;;;;;;1.13;1.13;;;;;;;;;;5091333;28;20487;-65
2024/02/12 03:20:14;;;;;;;0.70;0.70;;;;;;;;;;5094516;28;20451;-66
2024/02/12 03:22:41;;;;;;;0.60;0.60;;;;;;;;;;5097939;28;20668;-66
2024/02/12 03:25:09;;;;;;;0.67;0.67;;;;;;;;;;5097547;28;20483;-64
2024/02/12 03:27:36;;;;;;;0.70;0.70;;;;;;;;;;5087022;28;20460;-66
2024/02/12 03:30:05;;;;;;;0.60;0.60;;;;;;;;;;5098416;28;20458;-61
2024/02/12 03:32:31;;;;;;;0.73;0.73;;;;;;;;;;5092160;28;20440;-60
2024/02/12 03:34:59;;;;;;;0.60;0.60;;;;;;;;;;5099108;28;20448;-60
2024/02/12 03:37:26;;;;;;;0.60;0.60;;;;;;;;;;5091924;28;20491;-66
2024/02/12 03:39:53;;;;;;;0.70;0.70;;;;;;;;;;5110484;28;20570;-63
2024/02/12 03:42:22;;;;;;;0.63;0.63;;;;;;;;;;5096358;28;20460;-61
2024/02/12 03:44:48;;;;;;;0.70;0.70;;;;;;;;;;5091075;28;20446;-60
2024/02/12 03:47:15;;;;;;;0.70;0.70;;;;;;;;;;5093427;28;20450;-62
2024/02/12 04:00:40;;;;;;;0.70;0.70;;;;;;;;;;5083539;28;20528;-63
2024/02/12 04:03:08;;;;;;;0.50;0.50;;;;;;;;;;5096829;28;20519;-62
2024/02/12 04:05:34;;;;;;;0.83;0.83;;;;;;;;;;5092914;28;20454;-64
2024/02/12 04:08:02;;;;;;;5.07;4.73;;;;;;;;;;5082086;28;20452;-61
2024/02/12 04:10:29;;;;;;;0.57;0.57;;;;;;;;;;5092501;28;20456;-62
2024/02/12 04:12:56;;;;;;;1.90;1.80;;;;;;;;;;5090900;28;20496;-62
2024/02/12 04:15:23;;;;;;;0.60;0.60;;;;;;;;;;5093304;28;20511;-63
2024/02/12 04:17:50;;;;;;;0.70;0.70;;;;;;;;;;5096993;28;20463;-62
2024/02/12 04:20:17;;;;;;;0.80;0.80;;;;;;;;;;5096180;28;20452;-62
2024/02/12 04:22:45;;;;;;;1.10;1.10;;;;;;;;;;5095210;28;20507;-61
2024/02/12 04:25:13;;;;;;;0.70;0.70;;;;;;;;;;5090096;28;20460;-63
2024/02/12 04:27:41;;;;;;;0.70;0.70;;;;;;;;;;5095147;28;20482;-62
2024/02/12 04:30:10;;;;;;;0.70;0.70;;;;;;;;;;5098518;28;20442;-60
2024/02/12 04:32:37;;;;;;;1.57;1.57;;;;;;;;;;5106495;28;20462;-62
2024/02/12 04:35:05;;;;;;;0.50;0.50;;;;;;;;;;5099567;28;20489;-61
2024/02/12 04:37:32;;;;;;;0.60;0.60;;;;;;;;;;5094959;28;20475;-62
2024/02/12 04:39:58;;;;;;;0.60;0.60;;;;;;;;;;5102042;28;20474;-62
2024/02/12 04:42:26;;;;;;;0.90;0.90;;;;;;;;;;5103687;28;21289;-63
2024/02/12 04:44:52;;;;;;;0.70;0.70;;;;;;;;;;5090437;28;20487;-61
2024/02/12 04:47:20;;;;;;;0.60;0.60;;;;;;;;;;5099661;28;20474;-61
2024/02/12 04:49:46;;;;;;;0.70;0.70;;;;;;;;;;5099569;28;20505;-62
2024/02/12 04:52:14;;;;;;;1.17;1.13;;;;;;;;;;5100117;28;20480;-61
2024/02/12 04:54:41;;;;;;;8.90;8.57;;;;;;;;;;5101829;28;20505;-60
2024/02/12 04:57:08;;;;;;;0.60;0.60;;;;;;;;;;5103927;28;20434;-61
2024/02/12 04:59:37;;;;;;;0.70;0.70;;;;;;;;;;5097646;28;20473;-61
2024/02/12 05:02:04;;;;;;;1.77;1.70;;;;;;;;;;5098963;28;20974;-63
2024/02/12 05:04:32;;;;;;;0.50;0.50;;;;;;;;;;5087623;28;20515;-71
2024/02/12 05:07:00;;;;;;;0.63;0.63;;;;;;;;;;5099037;28;20471;-71
2024/02/12 05:09:27;;;;;;;0.80;0.80;;;;;;;;;;5088413;28;20520;-71
2024/02/12 05:11:53;;;;;;;0.50;0.50;;;;;;;;;;5096484;28;20470;-69
2024/02/12 05:14:23;;;;;;;0.60;0.60;;;;;;;;;;5091585;28;20981;-71
2024/02/12 05:16:51;;;;;;;0.60;0.60;;;;;;;;;;5101240;28;20489;-71
2024/02/12 05:24:47;;;;;;;0.80;0.80;;;;;;;;;;5094884;28;20501;-71
2024/02/12 05:27:14;;;;;;;0.70;0.70;;;;;;;;;;5098445;28;20455;-67
2024/02/12 05:29:41;;;;;;;0.60;0.60;;;;;;;;;;5100297;28;20493;-70
2024/02/12 05:32:08;;;;;;;0.70;0.70;;;;;;;;;;5093150;28;20459;-71
2024/02/12 05:34:35;;;;;;;0.80;0.80;;;;;;;;;;5098157;28;20459;-69
2024/02/12 05:37:01;;;;;;;1.10;1.10;;;;;;;;;;5090519;28;20486;-70
2024/02/12 05:39:30;;;;;;;0.90;0.90;;;;;;;;;;5098859;28;20514;-70
2024/02/12 05:41:57;;;;;;;0.70;0.70;;;;;;;;;;5097583;28;20452;-71
2024/02/12 05:44:23;;;;;;;0.70;0.70;;;;;;;;;;5090860;28;21065;-71
2024/02/12 05:46:50;;;;;;;1.37;1.37;;;;;;;;;;5086370;28;20462;-72
2024/02/12 05:49:25;;;;;;;0.60;0.60;;;;;;;;;;5096239;28;20750;-71
2024/02/12 05:51:51;;;;;;;1.40;1.33;;;;;;;;;;5093576;28;20486;-69
2024/02/12 05:54:18;;;;;;;1.70;1.67;;;;;;;;;;5088085;28;20462;-70
2024/02/12 05:56:45;;;;;;;0.63;0.63;;;;;;;;;;5091403;28;20484;-71
2024/02/12 05:59:11;;;;;;;0.70;0.70;;;;;;;;;;5093947;28;20454;-72
2024/02/12 06:01:38;;;;;;;0.70;0.70;;;;;;;;;;5098315;28;20490;-71
2024/02/12 06:04:05;;;;;;;0.70;0.70;;;;;;;;;;5092964;28;20515;-71
2024/02/12 06:06:37;;;;;;;0.60;0.60;;;;;;;;;;5090627;28;20932;-72
2024/02/12 06:09:03;;;;;;;0.60;0.60;;;;;;;;;;5091641;28;20868;-71
2024/02/12 06:11:30;;;;;;;0.60;0.60;;;;;;;;;;5092145;28;20465;-72
2024/02/12 06:13:57;;;;;;;0.70;0.70;;;;;;;;;;5091918;28;20471;-71
2024/02/12 06:16:24;;;;;;;1.23;1.23;;;;;;;;;;5090291;28;20900;-71
2024/02/12 06:18:51;;;;;;;0.70;0.70;;;;;;;;;;5099082;28;20526;-72
2024/02/12 06:21:17;;;;;;;0.80;0.80;;;;;;;;;;5098553;28;20447;-71
2024/02/12 06:23:45;;;;;;;0.73;0.73;;;;;;;;;;5081796;28;20586;-71
2024/02/12 06:26:16;;;;;;;0.60;0.60;;;;;;;;;;5093133;28;20486;-71
2024/02/12 06:28:43;;;;;;;0.60;0.60;;;;;;;;;;5095014;28;20519;-67
2024/02/12 06:31:09;;;;;;;1.13;1.13;;;;;;;;;;5091001;28;20530;-68
2024/02/12 06:33:36;;;;;;;0.50;0.50;;;;;;;;;;5096745;28;20448;-71
2024/02/12 06:36:02;;;;;;;0.70;0.70;;;;;;;;;;5089935;28;20474;-71
2024/02/12 06:38:29;;;;;;;0.70;0.70;;;;;;;;;;5091760;28;21011;-70
2024/02/12 06:40:57;;;;;;;0.73;0.73;;;;;;;;;;5089366;28;20471;-67
2024/02/12 06:43:23;;;;;;;0.60;0.60;;;;;;;;;;5084213;28;20921;-67
2024/02/12 06:45:50;;;;;;;0.70;0.70;;;;;;;;;;5082966;28;20483;-65
2024/02/12 06:48:16;;;;;;;0.60;0.60;;;;;;;;;;5090847;28;20485;-67
2024/02/12 06:50:42;;;;;;;0.60;0.60;;;;;;;;;;5087950;28;20551;-67
2024/02/12 06:53:09;;;;;;;0.80;0.80;;;;;;;;;;5096871;28;20454;-68
2024/02/12 06:55:35;;;;;;;0.70;0.70;;;;;;;;;;5090526;28;20486;-67
2024/02/12 06:58:03;;;;;;;1.67;1.60;;;;;;;;;;5085107;28;20489;-67
2024/02/12 07:00:31;;;;;;;0.70;0.70;;;;;;;;;;5095195;28;20479;-68
2024/02/12 07:02:59;;;;;;;0.90;0.90;;;;;;;;;;5096504;28;20487;-67
2024/02/12 07:05:25;;;;;;;0.70;0.70;;;;;;;;;;5097850;28;20490;-67
2024/02/12 07:07:53;;;;;;;0.80;0.80;;;;;;;;;;5094385;28;20454;-67
2024/02/12 07:10:21;;;;;;;1.00;1.00;;;;;;;;;;5097135;28;20462;-66
2024/02/12 07:12:47;;;;;;;0.70;0.70;;;;;;;;;;5084249;28;20527;-67
2024/02/12 07:15:16;;;;;;;1.37;1.37;;;;;;;;;;5082362;28;20443;-66
2024/02/12 07:17:43;;;;;;;0.93;0.93;;;;;;;;;;5087075;28;20440;-65
2024/02/12 07:20:09;;;;;;;0.90;0.90;;;;;;;;;;5091106;28;20471;-67
2024/02/12 07:22:36;;;;;;;0.80;0.80;;;;;;;;;;5092897;28;20450;-66
2024/02/12 07:25:03;;;;;;;1.00;1.00;;;;;;;;;;5086976;28;20490;-67
2024/02/12 07:27:30;;;;;;;0.90;0.90;;;;;;;;;;5088192;28;20459;-67
2024/02/12 07:29:56;;;;;;;0.93;0.93;;;;;;;;;;5096899;28;20526;-65
2024/02/12 07:32:24;;;;;;;0.80;0.80;;;;;;;;;;5096927;28;20478;-67
2024/02/12 07:34:52;;;;;;;0.70;0.70;;;;;;;;;;5086687;28;20546;-65
2024/02/12 07:37:18;;;;;;;0.80;0.80;;;;;;;;;;5086165;28;20463;-67
2024/02/12 07:39:45;;;;;;;0.70;0.70;;;;;;;;;;5097421;28;20478;-64
2024/02/12 07:42:11;;;;;;;1.80;1.70;;;;;;;;;;5095622;28;20451;-66
2024/02/12 07:44:39;;;;;;;0.80;0.80;;;;;;;;;;5090376;28;20491;-66
2024/02/12 07:47:06;;;;;;;1.00;1.00;;;;;;;;;;5092027;28;20833;-67
2024/02/12 07:49:34;;;;;;;1.00;1.00;;;;;;;;;;5092156;28;20534;-66
2024/02/12 07:52:01;;;;;;;1.33;1.33;;;;;;;;;;5095490;28;20527;-65
2024/02/12 07:54:28;;;;;;;0.80;0.80;;;;;;;;;;5093642;28;20490;-67
2024/02/12 07:56:55;;;;;;;1.17;1.17;;;;;;;;;;5091764;28;21007;-65
2024/02/12 07:59:21;;;;;;;0.63;0.63;;;;;;;;;;5093800;28;20530;-66
2024/02/12 08:01:48;;;;;;;0.60;0.60;;;;;;;;;;5098129;28;20436;-65
2024/02/12 08:04:15;;;;;;;1.73;1.63;;;;;;;;;;5095039;28;20521;-64
2024/02/12 08:06:42;;;;;;;0.70;0.70;;;;;;;;;;5096987;28;20585;-68
2024/02/12 08:09:10;;;;;;;0.70;0.70;;;;;;;;;;5092038;28;20483;-66
2024/02/12 08:11:37;;;;;;;1.87;1.77;;;;;;;;;;5093046;28;20526;-67
2024/02/12 08:14:03;;;;;;;0.60;0.60;;;;;;;;;;5085787;28;20451;-66
2024/02/12 08:16:33;;;;;;;0.80;0.80;;;;;;;;;;5091906;28;20520;-68
2024/02/12 08:18:59;;;;;;;0.60;0.60;;;;;;;;;;5087468;28;20459;-68
2024/02/12 08:21:25;;;;;;;1.87;1.77;;;;;;;;;;5092381;28;20443;-65
2024/02/12 08:23:53;;;;;;;0.50;0.50;;;;;;;;;;5085757;28;20456;-65
2024/02/12 08:26:22;;;;;;;0.60;0.60;;;;;;;;;;5089451;28;20439;-66
2024/02/12 08:28:48;;;;;;;0.60;0.60;;;;;;;;;;5088243;28;20462;-64
2024/02/12 08:31:17;;;;;;;11.40;3.80;;;;;;;;;;5092768;28;20891;-66
2024/02/12 08:33:44;;;;;;;0.90;0.90;;;;;;;;;;5088902;28;20625;-66
2024/02/12 08:36:11;;;;;;;0.70;0.70;;;;;;;;;;5094228;28;20451;-66
2024/02/12 08:38:37;;;;;;;2.23;2.13;;;;;;;;;;5093337;28;20484;-64
2024/02/12 08:41:06;;;;;;;0.80;0.80;;;;;;;;;;5096231;28;20588;-67
2024/02/12 08:43:32;;;;;;;0.90;0.90;;;;;;;;;;5095263;28;20463;-65
2024/02/12 08:45:59;;;;;;;0.70;0.70;;;;;;;;;;5091118;28;20577;-65
2024/02/12 08:48:27;;;;;;;0.80;0.80;;;;;;;;;;5089913;28;20450;-66
2024/02/12 08:50:53;;;;;;;0.70;0.70;;;;;;;;;;5086713;28;20513;-66
2024/02/12 08:53:20;;;;;;;0.80;0.80;;;;;;;;;;5086687;28;20451;-64
2024/02/12 08:55:46;;;;;;;1.67;1.60;;;;;;;;;;5088752;28;20473;-65
2024/02/12 08:58:15;;;;;;;0.90;0.90;;;;;;;;;;5083672;28;20443;-66
2024/02/12 09:00:44;;;;;;;1.00;1.00;;;;;;;;;;5088893;28;20451;-67
2024/02/12 09:03:13;;;;;;;1.00;1.00;;;;;;;;;;5084311;28;21358;-63
2024/02/12 09:05:40;;;;;;;1.00;1.00;;;;;;;;;;5089958;28;20491;-65
2024/02/12 09:08:06;;;;;;;0.90;0.90;;;;;;;;;;5092388;28;20990;-67
2024/02/12 09:10:33;;;;;;;0.80;0.80;;;;;;;;;;5084809;28;20444;-66
2024/02/12 09:13:00;;;;;;;0.80;0.80;;;;;;;;;;5082457;28;20448;-66
2024/02/12 09:15:29;;;;;;;0.77;0.77;;;;;;;;;;5090723;28;20470;-66
2024/02/12 09:17:56;;;;;;;1.10;1.10;;;;;;;;;;5090143;28;20451;-66
2024/02/12 09:20:23;;;;;;;0.90;0.90;;;;;;;;;;5088040;28;20456;-66
2024/02/12 09:22:51;;;;;;;1.00;1.00;;;;;;;;;;5093785;28;20508;-68
2024/02/12 09:25:18;;;;;;;1.20;1.20;;;;;;;;;;5089838;28;21271;-67
2024/02/12 09:27:45;;;;;;;2.10;2.00;;;;;;;;;;5088195;28;20450;-71
2024/02/12 09:30:12;;;;;;;2.93;2.83;;;;;;;;;;5091892;28;20469;-71
2024/02/12 09:32:42;;;;;;;2.30;2.20;;;;;;;;;;5092008;28;20455;-70
2024/02/12 09:35:10;;;;;;;2.50;2.40;;;;;;;;;;5094604;28;20474;-74
2024/02/12 09:37:37;;;;;;;6.87;6.50;;;;;;;;;;5093686;28;20467;-68
2024/02/12 09:40:05;;;;;;;2.83;2.73;;;;;;;;;;5095306;28;20474;-70
2024/02/12 09:42:33;;;;;;;2.80;2.70;;;;;;;;;;5090687;28;20542;-72
2024/02/12 09:45:00;;;;;;;2.73;2.63;;;;;;;;;;5095797;28;21040;-73
2024/02/12 09:47:28;;;;;;;2.97;2.87;;;;;;;;;;5088285;28;20447;-73
2024/02/12 09:49:57;;;;;;;2.10;2.00;;;;;;;;;;5093851;28;20470;-72
2024/02/12 09:52:26;;;;;;;2.20;2.10;;;;;;;;;;5087962;28;20443;-69
2024/02/12 09:54:53;;;;;;;2.30;2.20;;;;;;;;;;5096208;28;20479;-73
2024/02/12 09:57:19;;;;;;;2.27;2.17;;;;;;;;;;5095079;28;20521;-70
2024/02/12 09:59:47;;;;;;;4.20;4.00;;;;;;;;;;5098840;28;20455;-72
2024/02/12 10:02:13;;;;;;;2.67;2.57;;;;;;;;;;5092807;28;20769;-73
2024/02/12 10:04:40;;;;;;;2.70;2.60;;;;;;;;;;5087688;28;20480;-66
2024/02/12 10:07:08;;;;;;;2.90;2.80;;;;;;;;;;5094339;28;20443;-67
2024/02/12 10:09:35;;;;;;;2.80;2.70;;;;;;;;;;5097814;28;20442;-66
2024/02/12 10:12:05;;;;;;;3.47;3.37;;;;;;;;;;5084744;28;20462;-62
2024/02/12 10:14:31;;;;;;;3.23;3.13;;;;;;;;;;5084896;28;20448;-66
2024/02/12 10:17:00;;;;;;;3.70;3.60;;;;;;;;;;5088743;28;20954;-66
2024/02/12 10:19:26;;;;;;;3.00;2.90;;;;;;;;;;5095029;28;20473;-66
2024/02/12 10:21:54;;;;;;;2.80;2.70;;;;;;;;;;5098601;28;20455;-65
2024/02/12 10:24:23;;;;;;;2.60;2.50;;;;;;;;;;5092134;28;20451;-68
2024/02/12 10:26:50;;;;;;;2.50;2.40;;;;;;;;;;5096312;28;20517;-68
2024/02/12 10:29:18;;;;;;;4.27;4.07;;;;;;;;;;5090591;28;20480;-67
2024/02/12 10:31:45;;;;;;;4.17;3.97;;;;;;;;;;5096922;28;20451;-61
2024/02/12 10:34:11;;;;;;;3.83;3.73;;;;;;;;;;5094368;28;20447;-66
2024/02/12 10:36:39;;;;;;;3.30;3.20;;;;;;;;;;5086968;28;20478;-67
2024/02/12 10:39:12;;;;;;;2.80;2.70;;;;;;;;;;5094636;28;20483;-63
2024/02/12 10:41:46;;;;;;;3.23;3.13;;;;;;;;;;5092160;28;20465;-65
2024/02/12 10:44:14;;;;;;;2.27;2.17;;;;;;;;;;5094808;28;20500;-66
2024/02/12 10:46:40;;;;;;;2.70;2.60;;;;;;;;;;5098095;28;20528;-66
2024/02/12 10:49:07;;;;;;;2.33;2.23;;;;;;;;;;5094540;28;20447;-66
2024/02/12 10:51:36;;;;;;;2.40;2.30;;;;;;;;;;5094987;28;20452;-68
2024/02/12 10:54:02;;;;;;;3.00;2.90;;;;;;;;;;5083459;28;20450;-67
2024/02/12 10:56:29;;;;;;;2.40;2.30;;;;;;;;;;5094968;28;20448;-67
2024/02/12 10:58:57;;;;;;;2.57;2.47;;;;;;;;;;5097564;28;20546;-66
2024/02/12 11:01:24;;;;;;;2.40;2.30;;;;;;;;;;5092081;28;21091;-67
2024/02/12 11:03:51;;;;;;;2.10;2.00;;;;;;;;;;5097045;28;20460;-67
2024/02/12 11:06:18;;;;;;;2.93;2.83;;;;;;;;;;5086812;28;20487;-66
2024/02/12 11:08:46;;;;;;;2.50;2.40;;;;;;;;;;5094589;28;20458;-65
2024/02/12 11:11:16;;;;;;;4.40;4.20;;;;;;;;;;5091229;28;20439;-62
2024/02/12 11:13:43;;;;;;;3.00;2.90;;;;;;;;;;5092446;28;20456;-59
2024/02/12 11:16:16;;;;;;;2.43;2.33;;;;;;;;;;5082526;28;20531;-62
2024/02/12 11:18:42;;;;;;;2.80;2.70;;;;;;;;;;5091335;28;20451;-63
2024/02/12 11:21:11;;;;;;;4.77;4.50;;;;;;;;;;5090376;28;20509;-65
2024/02/12 11:23:40;;;;;;;3.40;3.20;;;;;;;;;;5094452;28;20492;-64
2024/02/12 11:26:07;;;;;;;2.43;2.33;;;;;;;;;;5081193;28;20527;-60
2024/02/12 11:28:33;;;;;;;5.03;4.73;;;;;;;;;;5090558;28;20460;-65
2024/02/12 11:31:00;;;;;;;5.30;4.77;;;;;;;;;;5082087;28;20454;-65
2024/02/12 11:33:28;;;;;;;4.07;3.87;;;;;;;;;;5084573;28;20483;-65
2024/02/12 11:36:05;;;;;;;2.73;2.63;;;;;;;;;;5095601;28;20575;-64
2024/02/12 11:38:32;;;;;;;2.80;2.70;;;;;;;;;;5087916;28;20489;-67
2024/02/12 11:40:59;;;;;;;4.50;4.33;;;;;;;;;;5090449;28;20494;-65
2024/02/12 11:43:26;;;;;;;3.80;3.60;;;;;;;;;;5091549;28;20455;-65
2024/02/12 11:45:57;;;;;;;2.10;2.00;;;;;;;;;;5093470;28;21285;-63
2024/02/12 11:48:26;;;;;;;1.87;1.77;;;;;;;;;;5084833;28;20482;-65
2024/02/12 11:50:55;;;;;;;1.90;1.80;;;;;;;;;;5082960;28;20448;-65
2024/02/12 11:53:22;;;;;;;1.97;1.87;;;;;;;;;;5082144;28;20455;-64
2024/02/12 11:55:48;;;;;;;1.80;1.70;;;;;;;;;;5090827;28;20451;-64
2024/02/12 11:58:15;;;;;;;1.50;1.50;;;;;;;;;;5087037;28;20564;-65
2024/02/12 12:00:42;;;;;;;1.37;1.37;;;;;;;;;;5093138;28;20807;-61
2024/02/12 12:03:09;;;;;;;1.87;1.77;;;;;;;;;;5080226;28;20448;-65
2024/02/12 12:05:38;;;;;;;2.10;2.00;;;;;;;;;;5087137;28;20519;-63
2024/02/12 12:08:07;;;;;;;2.77;2.67;;;;;;;;;;5090038;28;20526;-61
2024/02/12 12:10:34;;;;;;;1.73;1.63;;;;;;;;;;5086834;28;20452;-68
2024/02/12 12:13:01;;;;;;;3.17;3.07;;;;;;;;;;5089824;28;20928;-65
2024/02/12 12:15:28;;;;;;;2.20;2.10;;;;;;;;;;5091999;28;20466;-68
2024/02/12 12:17:54;;;;;;;2.20;2.10;;;;;;;;;;5088628;28;20465;-65
2024/02/12 12:20:25;;;;;;;2.10;2.00;;;;;;;;;;5084477;28;20451;-67
2024/02/12 12:22:53;;;;;;;2.40;2.30;;;;;;;;;;5092951;28;20447;-68
2024/02/12 12:25:21;;;;;;;2.20;2.10;;;;;;;;;;5084090;28;20519;-66
2024/02/12 12:27:49;;;;;;;1.90;1.80;;;;;;;;;;5091438;28;20821;-66
2024/02/12 12:30:18;;;;;;;2.50;2.40;;;;;;;;;;5087000;28;20515;-63
2024/02/12 12:32:47;;;;;;;1.80;1.70;;;;;;;;;;5089637;28;20496;-68
2024/02/12 12:35:13;;;;;;;1.70;1.60;;;;;;;;;;5096777;28;20910;-67
2024/02/12 12:37:41;;;;;;;4.33;4.03;;;;;;;;;;5091300;28;20467;-68
2024/02/12 12:40:11;;;;;;;2.00;1.90;;;;;;;;;;5089046;28;20490;-64
2024/02/12 12:42:39;;;;;;;2.10;2.00;;;;;;;;;;5089618;28;20467;-66
2024/02/12 12:45:08;;;;;;;1.60;1.60;;;;;;;;;;5094937;28;20512;-66
2024/02/12 12:47:36;;;;;;;1.60;1.60;;;;;;;;;;5090843;28;20885;-65
2024/02/12 12:50:04;;;;;;;1.30;1.30;;;;;;;;;;5096084;28;20523;-68
2024/02/12 12:52:30;;;;;;;1.30;1.30;;;;;;;;;;5099842;28;20455;-65
2024/02/12 12:54:57;;;;;;;1.20;1.20;;;;;;;;;;5089642;28;20446;-68
2024/02/12 12:57:23;;;;;;;1.13;1.13;;;;;;;;;;5095546;28;20530;-67
2024/02/12 12:59:52;;;;;;;1.30;1.30;;;;;;;;;;5098190;28;20455;-68
2024/02/12 13:02:19;;;;;;;1.10;1.10;;;;;;;;;;5094946;28;20911;-66
2024/02/12 13:04:46;;;;;;;1.00;1.00;;;;;;;;;;5096496;28;20894;-66
2024/02/12 13:07:14;;;;;;;1.10;1.10;;;;;;;;;;5098216;28;20970;-69
2024/02/12 13:09:41;;;;;;;0.80;0.80;;;;;;;;;;5092694;28;20456;-67
2024/02/12 13:12:12;;;;;;;1.10;1.10;;;;;;;;;;5096556;28;20492;-68
2024/02/12 13:14:39;;;;;;;0.97;0.97;;;;;;;;;;5096935;28;20486;-67
2024/02/12 13:17:06;;;;;;;1.10;1.10;;;;;;;;;;5095479;28;20477;-65
2024/02/12 13:19:33;;;;;;;0.90;0.90;;;;;;;;;;5089947;28;20447;-65
2024/02/12 13:22:00;;;;;;;1.07;1.07;;;;;;;;;;5094999;28;20485;-66
2024/02/12 13:24:26;;;;;;;1.00;1.00;;;;;;;;;;5097985;28;20511;-69
2024/02/12 13:26:52;;;;;;;1.10;1.10;;;;;;;;;;5097119;28;20483;-68
2024/02/12 13:29:20;;;;;;;2.13;2.03;;;;;;;;;;5097784;28;20447;-76
2024/02/12 13:31:47;;;;;;;1.10;1.10;;;;;;;;;;5095655;28;20460;-69
2024/02/12 13:34:15;;;;;;;1.20;1.20;;;;;;;;;;5101613;28;20447;-69
2024/02/12 13:36:42;;;;;;;1.53;1.53;;;;;;;;;;5096033;28;20447;-69
2024/02/12 13:39:13;;;;;;;1.40;1.40;;;;;;;;;;5103829;28;20481;-73
2024/02/12 13:41:41;;;;;;;1.27;1.27;;;;;;;;;;5101832;28;20450;-71
2024/02/12 13:44:07;;;;;;;1.10;1.10;;;;;;;;;;5096552;28;20459;-67
2024/02/12 13:46:34;;;;;;;2.43;2.33;;;;;;;;;;5093552;28;20488;-67
2024/02/12 13:49:00;;;;;;;1.50;1.50;;;;;;;;;;5103120;28;20477;-70
2024/02/12 13:51:28;;;;;;;1.50;1.50;;;;;;;;;;5096734;28;20447;-72
2024/02/12 13:53:55;;;;;;;1.60;1.60;;;;;;;;;;5097288;28;20458;-69
2024/02/12 13:56:24;;;;;;;1.70;1.70;;;;;;;;;;5092807;28;20452;-68
2024/02/12 13:58:51;;;;;;;1.70;1.70;;;;;;;;;;5094494;28;20451;-72
2024/02/12 14:01:18;;;;;;;1.63;1.63;;;;;;;;;;5089923;28;20980;-71
2024/02/12 14:03:44;;;;;;;1.50;1.50;;;;;;;;;;5094817;28;20435;-72
2024/02/12 14:06:11;;;;;;;2.03;1.93;;;;;;;;;;5092863;28;20496;-72
2024/02/12 14:08:40;;;;;;;3.30;3.20;;;;;;;;;;5088838;28;20468;-73
2024/02/12 14:11:06;;;;;;;1.20;1.20;;;;;;;;;;5094765;28;20568;-68
2024/02/12 14:13:35;;;;;;;1.10;1.10;;;;;;;;;;5093732;28;20472;-70
2024/02/12 14:16:04;;;;;;;1.17;1.17;;;;;;;;;;5097570;28;20451;-71
2024/02/12 14:18:31;;;;;;;0.97;0.97;;;;;;;;;;5098625;28;20460;-72
2024/02/12 14:20:58;;;;;;;0.97;0.97;;;;;;;;;;5089341;28;20450;-71
2024/02/12 14:23:26;;;;;;;1.20;1.20;;;;;;;;;;5100817;28;20466;-71
2024/02/12 14:25:54;;;;;;;1.70;1.60;;;;;;;;;;5092188;28;20661;-70
2024/02/12 14:28:20;;;;;;;1.20;1.20;;;;;;;;;;5094344;28;20448;-66
2024/02/12 14:30:48;;;;;;;1.00;1.00;;;;;;;;;;5091742;28;20465;-68
2024/02/12 14:33:15;;;;;;;1.60;1.60;;;;;;;;;;5095457;28;20772;-70
2024/02/12 14:35:48;;;;;;;1.50;1.50;;;;;;;;;;5092692;28;20489;-68
2024/02/12 14:38:15;;;;;;;1.30;1.30;;;;;;;;;;5088812;28;20484;-70
2024/02/12 14:40:43;;;;;;;1.47;1.37;;;;;;;;;;5094291;28;20850;-71
2024/02/12 14:43:11;;;;;;;1.80;1.73;;;;;;;;;;5091007;27;20456;-70
2024/02/12 14:45:38;;;;;;;2.03;1.93;;;;;;;;;;5085575;28;20455;-71
2024/02/12 14:48:07;;;;;;;1.47;1.47;;;;;;;;;;5096016;28;20843;-72
2024/02/12 14:50:34;;;;;;;2.00;1.90;;;;;;;;;;5103513;28;20494;-71
2024/02/12 14:53:02;;;;;;;1.77;1.70;;;;;;;;;;5092240;28;20485;-69
2024/02/12 14:55:29;;;;;;;1.97;1.87;;;;;;;;;;5087584;28;20460;-69
2024/02/12 14:57:56;;;;;;;2.17;2.07;;;;;;;;;;5101859;28;20455;-71
2024/02/12 15:00:25;;;;;;;3.93;3.70;;;;;;;;;;5093080;28;20538;-69